Dream — FAC4007 — position and weather

sailwx.info

Track history (hours):
 
Tides and Currents Weather Stations Pressure Air Temp Water Temp Dewpoint Dewpoint Depression Visibility Wind Speed Wind Dir Waves Ship Positions

Dream

Last reported at 2018-Jul-14 14:04 UTC. Time now 2018-Jul-16 20:05 UTC.
Position N 37°02' E 025°05'.

Length 17 m.

MMSI: 227282470.

Date/timePositionNaut miles runAvg speedWind from/ knotsBaromVisibWave heightAir tempDewpointWater temp
2018-Jul-14 14:04N 37°02' E 025°05'12 0.4
2018-Jul-13 10:10N 37°13' E 025°12'1 8.1
2018-Jul-13 10:00N 37°14' E 025°12'4 8.5
2018-Jul-13 09:30N 37°18' E 025°15'8 8.6
2018-Jul-13 08:35N 37°25' E 025°17'1 7.8
2018-Jul-13 08:29N 37°26' E 025°18'2 0.1
2018-Jul-12 15:52N 37°28' E 025°20'0 0.0
2018-Jul-12 14:22N 37°28' E 025°20'0 0.0
2018-Jul-12 13:55N 37°28' E 025°20'0 0.0
2018-Jul-12 13:07N 37°28' E 025°20'0 0.0
2018-Jul-12 12:52N 37°28' E 025°20'0 0.0
2018-Jul-12 12:22N 37°28' E 025°20'0 0.0
2018-Jul-12 09:13N 37°28' E 025°20'0 0.0
2018-Jul-12 08:46N 37°28' E 025°20'0 0.0
2018-Jul-12 08:24N 37°28' E 025°20'2 3.5
2018-Jul-12 07:56N 37°27' E 025°18'1 2.5
2018-Jul-12 07:30N 37°26' E 025°17'2 4.0
2018-Jul-12 07:00N 37°24' E 025°16'1 1.6
2018-Jul-12 06:26N 37°24' E 025°16'1 1.3
2018-Jul-12 06:00N 37°23' E 025°16'1 1.6
2018-Jul-12 05:20N 37°23' E 025°14'0 0.0
2018-Jul-12 04:56N 37°23' E 025°14'0 0.0
2018-Jul-12 04:23N 37°23' E 025°14'0 0.0
2018-Jul-12 03:56N 37°23' E 025°14'0 0.0
2018-Jul-12 03:29N 37°23' E 025°14'0 0.0
2018-Jul-12 02:59N 37°23' E 025°14'0 0.0
2018-Jul-12 02:26N 37°23' E 025°14'0 0.0
2018-Jul-12 01:56N 37°23' E 025°14'0 0.0
2018-Jul-12 01:29N 37°23' E 025°14'0 0.0
2018-Jul-12 00:59N 37°23' E 025°14'0 0.0
2018-Jul-12 00:29N 37°23' E 025°14'0 0.0
2018-Jul-11 23:50N 37°23' E 025°14'0 0.0
2018-Jul-11 23:29N 37°23' E 025°14'0 0.0
2018-Jul-11 22:59N 37°23' E 025°14'0 0.0
2018-Jul-11 22:26N 37°23' E 025°14'0 0.0
2018-Jul-11 21:59N 37°23' E 025°14'0 0.0
2018-Jul-11 21:29N 37°23' E 025°14'0 0.1
2018-Jul-11 21:00N 37°23' E 025°14'3 6.3
2018-Jul-11 20:28N 37°20' E 025°12'3 7.2
2018-Jul-11 20:00N 37°17' E 025°10'7 7.3
2018-Jul-11 19:06N 37°12' E 025°05'1 7.6
2018-Jul-11 18:57N 37°11' E 025°04'3 7.5
2018-Jul-11 18:30N 37°08' E 025°02'4 7.2
2018-Jul-11 17:58N 37°06' E 024°58'  
2018-Jul-08 17:09N 37°34' E 023°28'4 7.5
2018-Jul-08 16:34N 37°38' E 023°30'0 7.4
2018-Jul-08 16:30N 37°39' E 023°30'4 7.3
2018-Jul-08 16:00N 37°42' E 023°32'4 7.0
2018-Jul-08 15:30N 37°45' E 023°34'3 6.5
2018-Jul-08 15:00N 37°48' E 023°35'3 6.4
2018-Jul-08 14:30N 37°51' E 023°37'3 6.4
2018-Jul-08 14:00N 37°54' E 023°39'2 3.2
2018-Jul-08 13:29N 37°56' E 023°39'0 0.0
2018-Jul-08 12:59N 37°56' E 023°39'0 0.0
2018-Jul-08 12:29N 37°56' E 023°39'0 0.0
2018-Jul-08 11:59N 37°56' E 023°39'0 0.0
2018-Jul-08 11:29N 37°56' E 023°39'0 0.0
2018-Jul-08 10:59N 37°56' E 023°39'0 0.0
2018-Jul-08 10:29N 37°56' E 023°39'0 0.0
2018-Jul-08 09:59N 37°56' E 023°39'0 0.0
2018-Jul-08 09:29N 37°56' E 023°39'0 0.0
2018-Jul-08 08:59N 37°56' E 023°39'0 0.0
2018-Jul-08 08:29N 37°56' E 023°39'0 0.0
2018-Jul-08 07:59N 37°56' E 023°39'0 0.0
2018-Jul-08 07:29N 37°56' E 023°39'0 0.0
2018-Jul-08 06:56N 37°56' E 023°39'0 0.0
2018-Jul-08 06:29N 37°56' E 023°39'0 0.0
2018-Jul-08 05:59N 37°56' E 023°39'0 0.0
2018-Jul-08 05:29N 37°56' E 023°39'0 0.0
2018-Jul-08 04:59N 37°56' E 023°39'0 0.6
2018-Jul-08 04:30N 37°56' E 023°39'3 6.3
2018-Jul-08 04:00N 37°53' E 023°37'3 6.9
2018-Jul-08 03:30N 37°51' E 023°34'4 7.3
2018-Jul-08 03:00N 37°48' E 023°31'2 3.8
2018-Jul-08 02:29N 37°46' E 023°29'0 0.0
2018-Jul-08 01:56N 37°46' E 023°29'0 0.0
2018-Jul-08 01:29N 37°46' E 023°29'0 0.0
2018-Jul-08 00:59N 37°46' E 023°29'0 0.0
2018-Jul-08 00:29N 37°46' E 023°29'0 0.0
2018-Jul-07 23:59N 37°46' E 023°29'0 0.0
2018-Jul-07 23:29N 37°46' E 023°29'0 0.0
2018-Jul-07 22:59N 37°46' E 023°29'0 0.0
2018-Jul-07 22:26N 37°46' E 023°29'0 0.0
2018-Jul-07 21:59N 37°46' E 023°29'0 0.0
2018-Jul-07 21:29N 37°46' E 023°29'0 0.0
2018-Jul-07 20:59N 37°46' E 023°29'0 0.0
2018-Jul-07 20:29N 37°46' E 023°29'0 0.0
2018-Jul-07 19:59N 37°46' E 023°29'0 0.0
2018-Jul-07 19:29N 37°46' E 023°29'0 0.0
2018-Jul-07 18:59N 37°46' E 023°29'0 0.0
2018-Jul-07 18:29N 37°46' E 023°29'0 0.0
2018-Jul-07 17:59N 37°46' E 023°29'0 0.0
2018-Jul-07 17:29N 37°46' E 023°29'2 4.7
2018-Jul-07 17:00N 37°47' E 023°32'1 2.1
2018-Jul-07 16:29N 37°46' E 023°34'0 0.0
2018-Jul-07 15:59N 37°46' E 023°34'0 0.0
2018-Jul-07 15:29N 37°46' E 023°34'0 0.0
2018-Jul-07 14:59N 37°46' E 023°34'1 3.1
2018-Jul-07 14:30N 37°45' E 023°33'1 1.2
2018-Jul-07 14:00N 37°44' E 023°33'2 4.7
2018-Jul-07 13:30N 37°47' E 023°33'3 6.6
2018-Jul-07 13:00N 37°47' E 023°29'3 6.9
2018-Jul-07 12:30N 37°46' E 023°25'1 2.9
2018-Jul-07 12:00N 37°45' E 023°26'0 0.0
2018-Jul-07 11:30N 37°45' E 023°26'0 0.0
2018-Jul-07 11:00N 37°45' E 023°26'0 0.0
2018-Jul-07 10:30N 37°45' E 023°26'0 0.0
2018-Jul-07 10:00N 37°45' E 023°26'0 0.0
2018-Jul-07 09:30N 37°45' E 023°26'0 0.0
2018-Jul-07 09:00N 37°45' E 023°26'0 0.0
2018-Jul-07 08:30N 37°45' E 023°26'0 0.0
2018-Jul-07 08:00N 37°45' E 023°26'0 0.0
2018-Jul-07 07:30N 37°45' E 023°26'0 0.1
2018-Jul-07 07:00N 37°45' E 023°26'0 0.0
2018-Jul-07 06:24N 37°45' E 023°26'0 0.0
2018-Jul-07 06:00N 37°45' E 023°26'10 6.1
2018-Jul-07 04:26N 37°35' E 023°29'3 0.6
2018-Jul-06 22:51N 37°32' E 023°29'0 0.0
2018-Jul-06 22:27N 37°32' E 023°29'0 0.0
2018-Jul-06 22:00N 37°32' E 023°29'0 0.0
2018-Jul-06 21:30N 37°32' E 023°29'0 0.0
2018-Jul-06 21:00N 37°32' E 023°29'0 0.0
2018-Jul-06 20:24N 37°32' E 023°29'0 0.0
2018-Jul-06 20:00N 37°32' E 023°29'0 0.0
2018-Jul-06 19:30N 37°32' E 023°29'0 0.0
2018-Jul-06 19:00N 37°32' E 023°29'0 0.0
2018-Jul-06 18:27N 37°32' E 023°29'0 0.0
2018-Jul-06 17:57N 37°32' E 023°29'0 0.0
2018-Jul-06 17:30N 37°32' E 023°29'0 0.0
2018-Jul-06 17:00N 37°32' E 023°29'0 0.0
2018-Jul-06 16:30N 37°32' E 023°29'0 0.0
2018-Jul-06 16:00N 37°32' E 023°29'0 0.0
2018-Jul-06 15:30N 37°32' E 023°29'0 0.0
2018-Jul-06 15:00N 37°32' E 023°29'0 0.0
2018-Jul-06 14:30N 37°32' E 023°29'0 0.1
2018-Jul-06 13:59N 37°32' E 023°29'1 2.2
2018-Jul-06 13:30N 37°32' E 023°30'4 7.3
2018-Jul-06 12:59N 37°29' E 023°32'3 6.6
2018-Jul-06 12:30N 37°26' E 023°31'  
Track history (hours):
 
Tides and Currents Weather Stations Pressure Air Temp Water Temp Dewpoint Dewpoint Depression Visibility Wind Speed Wind Dir Waves Ship Positions

Dream

Last reported at 2018-Jul-14 14:04 UTC. Time now 2018-Jul-16 20:05 UTC.
Position N 37°02' E 025°05'.

Length 17 m.

MMSI: 227282470.

Date/timePositionNaut miles runAvg speedWind from/ knotsBaromVisibWave heightAir tempDewpointWater temp
2018-Jul-14 14:04N 37°02' E 025°05'12 0.4
2018-Jul-13 10:10N 37°13' E 025°12'1 8.1
2018-Jul-13 10:00N 37°14' E 025°12'4 8.5
2018-Jul-13 09:30N 37°18' E 025°15'8 8.6
2018-Jul-13 08:35N 37°25' E 025°17'1 7.8
2018-Jul-13 08:29N 37°26' E 025°18'2 0.1
2018-Jul-12 15:52N 37°28' E 025°20'0 0.0
2018-Jul-12 14:22N 37°28' E 025°20'0 0.0
2018-Jul-12 13:55N 37°28' E 025°20'0 0.0
2018-Jul-12 13:07N 37°28' E 025°20'0 0.0
2018-Jul-12 12:52N 37°28' E 025°20'0 0.0
2018-Jul-12 12:22N 37°28' E 025°20'0 0.0
2018-Jul-12 09:13N 37°28' E 025°20'0 0.0
2018-Jul-12 08:46N 37°28' E 025°20'0 0.0
2018-Jul-12 08:24N 37°28' E 025°20'2 3.5
2018-Jul-12 07:56N 37°27' E 025°18'1 2.5
2018-Jul-12 07:30N 37°26' E 025°17'2 4.0
2018-Jul-12 07:00N 37°24' E 025°16'1 1.6
2018-Jul-12 06:26N 37°24' E 025°16'1 1.3
2018-Jul-12 06:00N 37°23' E 025°16'1 1.6
2018-Jul-12 05:20N 37°23' E 025°14'0 0.0
2018-Jul-12 04:56N 37°23' E 025°14'0 0.0
2018-Jul-12 04:23N 37°23' E 025°14'0 0.0
2018-Jul-12 03:56N 37°23' E 025°14'0 0.0
2018-Jul-12 03:29N 37°23' E 025°14'0 0.0
2018-Jul-12 02:59N 37°23' E 025°14'0 0.0
2018-Jul-12 02:26N 37°23' E 025°14'0 0.0
2018-Jul-12 01:56N 37°23' E 025°14'0 0.0
2018-Jul-12 01:29N 37°23' E 025°14'0 0.0
2018-Jul-12 00:59N 37°23' E 025°14'0 0.0
2018-Jul-12 00:29N 37°23' E 025°14'0 0.0
2018-Jul-11 23:50N 37°23' E 025°14'0 0.0
2018-Jul-11 23:29N 37°23' E 025°14'0 0.0
2018-Jul-11 22:59N 37°23' E 025°14'0 0.0
2018-Jul-11 22:26N 37°23' E 025°14'0 0.0
2018-Jul-11 21:59N 37°23' E 025°14'0 0.0
2018-Jul-11 21:29N 37°23' E 025°14'0 0.1
2018-Jul-11 21:00N 37°23' E 025°14'3 6.3
2018-Jul-11 20:28N 37°20' E 025°12'3 7.2
2018-Jul-11 20:00N 37°17' E 025°10'7 7.3
2018-Jul-11 19:06N 37°12' E 025°05'1 7.6
2018-Jul-11 18:57N 37°11' E 025°04'3 7.5
2018-Jul-11 18:30N 37°08' E 025°02'4 7.2
2018-Jul-11 17:58N 37°06' E 024°58'  
2018-Jul-08 17:09N 37°34' E 023°28'4 7.5
2018-Jul-08 16:34N 37°38' E 023°30'0 7.4
2018-Jul-08 16:30N 37°39' E 023°30'4 7.3
2018-Jul-08 16:00N 37°42' E 023°32'4 7.0
2018-Jul-08 15:30N 37°45' E 023°34'3 6.5
2018-Jul-08 15:00N 37°48' E 023°35'3 6.4
2018-Jul-08 14:30N 37°51' E 023°37'3 6.4
2018-Jul-08 14:00N 37°54' E 023°39'2 3.2
2018-Jul-08 13:29N 37°56' E 023°39'0 0.0
2018-Jul-08 12:59N 37°56' E 023°39'0 0.0
2018-Jul-08 12:29N 37°56' E 023°39'0 0.0
2018-Jul-08 11:59N 37°56' E 023°39'0 0.0
2018-Jul-08 11:29N 37°56' E 023°39'0 0.0
2018-Jul-08 10:59N 37°56' E 023°39'0 0.0
2018-Jul-08 10:29N 37°56' E 023°39'0 0.0
2018-Jul-08 09:59N 37°56' E 023°39'0 0.0
2018-Jul-08 09:29N 37°56' E 023°39'0 0.0
2018-Jul-08 08:59N 37°56' E 023°39'0 0.0
2018-Jul-08 08:29N 37°56' E 023°39'0 0.0
2018-Jul-08 07:59N 37°56' E 023°39'0 0.0
2018-Jul-08 07:29N 37°56' E 023°39'0 0.0
2018-Jul-08 06:56N 37°56' E 023°39'0 0.0
2018-Jul-08 06:29N 37°56' E 023°39'0 0.0
2018-Jul-08 05:59N 37°56' E 023°39'0 0.0
2018-Jul-08 05:29N 37°56' E 023°39'0 0.0
2018-Jul-08 04:59N 37°56' E 023°39'0 0.6
2018-Jul-08 04:30N 37°56' E 023°39'3 6.3
2018-Jul-08 04:00N 37°53' E 023°37'3 6.9
2018-Jul-08 03:30N 37°51' E 023°34'4 7.3
2018-Jul-08 03:00N 37°48' E 023°31'2 3.8
2018-Jul-08 02:29N 37°46' E 023°29'0 0.0
2018-Jul-08 01:56N 37°46' E 023°29'0 0.0
2018-Jul-08 01:29N 37°46' E 023°29'0 0.0
2018-Jul-08 00:59N 37°46' E 023°29'0 0.0
2018-Jul-08 00:29N 37°46' E 023°29'0 0.0
2018-Jul-07 23:59N 37°46' E 023°29'0 0.0
2018-Jul-07 23:29N 37°46' E 023°29'0 0.0
2018-Jul-07 22:59N 37°46' E 023°29'0 0.0
2018-Jul-07 22:26N 37°46' E 023°29'0 0.0
2018-Jul-07 21:59N 37°46' E 023°29'0 0.0
2018-Jul-07 21:29N 37°46' E 023°29'0 0.0
2018-Jul-07 20:59N 37°46' E 023°29'0 0.0
2018-Jul-07 20:29N 37°46' E 023°29'0 0.0
2018-Jul-07 19:59N 37°46' E 023°29'0 0.0
2018-Jul-07 19:29N 37°46' E 023°29'0 0.0
2018-Jul-07 18:59N 37°46' E 023°29'0 0.0
2018-Jul-07 18:29N 37°46' E 023°29'0 0.0
2018-Jul-07 17:59N 37°46' E 023°29'0 0.0
2018-Jul-07 17:29N 37°46' E 023°29'2 4.7
2018-Jul-07 17:00N 37°47' E 023°32'1 2.1
2018-Jul-07 16:29N 37°46' E 023°34'0 0.0
2018-Jul-07 15:59N 37°46' E 023°34'0 0.0
2018-Jul-07 15:29N 37°46' E 023°34'0 0.0
2018-Jul-07 14:59N 37°46' E 023°34'1 3.1
2018-Jul-07 14:30N 37°45' E 023°33'1 1.2
2018-Jul-07 14:00N 37°44' E 023°33'2 4.7
2018-Jul-07 13:30N 37°47' E 023°33'3 6.6
2018-Jul-07 13:00N 37°47' E 023°29'3 6.9
2018-Jul-07 12:30N 37°46' E 023°25'1 2.9
2018-Jul-07 12:00N 37°45' E 023°26'0 0.0
2018-Jul-07 11:30N 37°45' E 023°26'0 0.0
2018-Jul-07 11:00N 37°45' E 023°26'0 0.0
2018-Jul-07 10:30N 37°45' E 023°26'0 0.0
2018-Jul-07 10:00N 37°45' E 023°26'0 0.0
2018-Jul-07 09:30N 37°45' E 023°26'0 0.0
2018-Jul-07 09:00N 37°45' E 023°26'0 0.0
2018-Jul-07 08:30N 37°45' E 023°26'0 0.0
2018-Jul-07 08:00N 37°45' E 023°26'0 0.0
2018-Jul-07 07:30N 37°45' E 023°26'0 0.1
2018-Jul-07 07:00N 37°45' E 023°26'0 0.0
2018-Jul-07 06:24N 37°45' E 023°26'0 0.0
2018-Jul-07 06:00N 37°45' E 023°26'10 6.1
2018-Jul-07 04:26N 37°35' E 023°29'3 0.6
2018-Jul-06 22:51N 37°32' E 023°29'0 0.0
2018-Jul-06 22:27N 37°32' E 023°29'0 0.0
2018-Jul-06 22:00N 37°32' E 023°29'0 0.0
2018-Jul-06 21:30N 37°32' E 023°29'0 0.0
2018-Jul-06 21:00N 37°32' E 023°29'0 0.0
2018-Jul-06 20:24N 37°32' E 023°29'0 0.0
2018-Jul-06 20:00N 37°32' E 023°29'0 0.0
2018-Jul-06 19:30N 37°32' E 023°29'0 0.0
2018-Jul-06 19:00N 37°32' E 023°29'0 0.0
2018-Jul-06 18:27N 37°32' E 023°29'0 0.0
2018-Jul-06 17:57N 37°32' E 023°29'0 0.0
2018-Jul-06 17:30N 37°32' E 023°29'0 0.0
2018-Jul-06 17:00N 37°32' E 023°29'0 0.0
2018-Jul-06 16:30N 37°32' E 023°29'0 0.0
2018-Jul-06 16:00N 37°32' E 023°29'0 0.0
2018-Jul-06 15:30N 37°32' E 023°29'0 0.0
2018-Jul-06 15:00N 37°32' E 023°29'0 0.0
2018-Jul-06 14:30N 37°32' E 023°29'0 0.1
2018-Jul-06 13:59N 37°32' E 023°29'1 2.2
2018-Jul-06 13:30N 37°32' E 023°30'4 7.3
2018-Jul-06 12:59N 37°29' E 023°32'3 6.6
2018-Jul-06 12:30N 37°26' E 023°31'  

Dump ship's entire track history